createdAt,value
2024-01-12T00:01:53.208Z,27.57
2024-01-12T00:04:20.077Z,23.73
2024-01-12T00:06:47.698Z,21.00
2024-01-12T00:09:14.699Z,20.23
2024-01-12T00:11:41.614Z,21.40
2024-01-12T00:14:09.098Z,23.43
2024-01-12T00:16:35.924Z,21.97
2024-01-12T00:19:02.852Z,21.43
2024-01-12T00:21:29.714Z,25.70
2024-01-12T00:23:56.695Z,22.63
2024-01-12T00:26:23.582Z,22.13
2024-01-12T00:28:50.396Z,23.33
2024-01-12T00:31:17.357Z,21.57
2024-01-12T00:33:44.247Z,21.63
2024-01-12T00:36:12.234Z,23.10
2024-01-12T00:38:39.034Z,23.17
2024-01-12T00:41:05.909Z,22.77
2024-01-12T00:43:32.708Z,22.03
2024-01-12T00:45:59.853Z,21.67
2024-01-12T00:48:26.984Z,21.77
2024-01-12T00:50:54.227Z,23.83
2024-01-12T00:53:21.262Z,20.90
2024-01-12T00:55:48.166Z,20.20
2024-01-12T00:58:14.923Z,23.50
2024-01-12T01:00:41.778Z,23.57
2024-01-12T01:03:08.749Z,21.17
2024-01-12T01:05:35.684Z,22.00
2024-01-12T01:08:02.520Z,24.07
2024-01-12T01:10:29.301Z,24.77
2024-01-12T01:12:56.158Z,21.50
2024-01-12T01:15:23.181Z,22.87
2024-01-12T01:17:50.798Z,25.70
2024-01-12T01:20:17.899Z,24.53
2024-01-12T01:22:44.816Z,24.17
2024-01-12T01:25:11.923Z,23.87
2024-01-12T01:27:38.735Z,22.83
2024-01-12T01:30:06.155Z,24.07
2024-01-12T01:32:33.816Z,22.73
2024-01-12T01:35:00.885Z,22.83
2024-01-12T01:37:27.672Z,21.60
2024-01-12T01:39:54.526Z,21.33
2024-01-12T01:42:21.392Z,20.43
2024-01-12T01:44:48.221Z,22.03
2024-01-12T01:47:16.099Z,23.93
2024-01-12T01:49:43.013Z,21.47
2024-01-12T01:52:10.901Z,22.37
2024-01-12T01:54:38.058Z,22.30
2024-01-12T01:57:06.567Z,19.40
2024-01-12T01:59:36.447Z,23.73
2024-01-12T02:02:05.196Z,23.37
2024-01-12T02:04:32.389Z,25.47
2024-01-12T02:06:59.401Z,25.57
2024-01-12T02:09:28.622Z,22.77
2024-01-12T02:11:56.019Z,25.20
2024-01-12T02:14:23.274Z,22.60
2024-01-12T02:16:50.394Z,21.93
2024-01-12T02:19:17.417Z,23.13
2024-01-12T02:21:44.425Z,18.63
2024-01-12T02:24:11.237Z,25.43
2024-01-12T02:26:38.192Z,20.10
2024-01-12T02:29:05.105Z,22.53
2024-01-12T02:31:32.153Z,25.67
2024-01-12T02:33:59.002Z,21.63
2024-01-12T02:36:28.955Z,22.17
2024-01-12T02:38:56.624Z,25.80
2024-01-12T02:41:23.712Z,23.73
2024-01-12T02:43:50.612Z,25.57
2024-01-12T02:46:17.762Z,24.03
2024-01-12T02:48:44.611Z,23.70
2024-01-12T02:51:11.452Z,22.97
2024-01-12T02:53:38.373Z,23.77
2024-01-12T02:56:05.310Z,22.93
2024-01-12T02:58:32.124Z,23.43
2024-01-12T03:01:00.258Z,25.73
2024-01-12T03:03:27.165Z,24.03
2024-01-12T03:05:54.139Z,23.03
2024-01-12T03:08:20.913Z,21.80
2024-01-12T03:10:47.744Z,23.00
2024-01-12T03:13:14.509Z,24.80
2024-01-12T03:15:41.339Z,20.13
2024-01-12T03:18:08.296Z,23.17
2024-01-12T03:20:36.329Z,20.50
2024-01-12T03:23:03.381Z,19.80
2024-01-12T03:25:30.242Z,24.33
2024-01-12T03:27:59.594Z,24.67
2024-01-12T03:30:26.483Z,20.40
2024-01-12T03:32:53.560Z,21.17
2024-01-12T03:35:20.410Z,24.77
2024-01-12T03:37:47.239Z,24.20
2024-01-12T03:40:14.198Z,22.13
2024-01-12T03:42:41.018Z,23.67
2024-01-12T03:45:08.965Z,22.47
2024-01-12T03:47:36.486Z,21.20
2024-01-12T03:50:03.579Z,24.40
2024-01-12T03:52:30.388Z,21.63
2024-01-12T03:54:57.200Z,21.80
2024-01-12T03:57:24.701Z,23.90
2024-01-12T03:59:51.563Z,24.63
2024-01-12T04:02:19.230Z,27.90
2024-01-12T04:04:46.092Z,24.67
2024-01-12T04:07:13.027Z,21.73
2024-01-12T04:09:42.573Z,26.70
2024-01-12T04:12:10.134Z,26.57
2024-01-12T04:14:37.362Z,25.70
2024-01-12T04:17:05.775Z,25.10
2024-01-12T04:19:32.753Z,23.70
2024-01-12T04:21:59.828Z,24.40
2024-01-12T04:24:26.656Z,26.90
2024-01-12T04:26:53.733Z,23.60
2024-01-12T04:29:20.627Z,27.03
2024-01-12T04:31:47.443Z,23.63
2024-01-12T04:34:14.334Z,25.50
2024-01-12T04:36:41.246Z,29.97
2024-01-12T04:39:08.038Z,27.00
2024-01-12T04:41:34.881Z,24.07
2024-01-12T04:44:01.745Z,26.37
2024-01-12T04:46:29.780Z,27.90
2024-01-12T04:48:56.772Z,26.40
2024-01-12T04:51:23.660Z,26.53
2024-01-12T04:53:50.581Z,30.17
2024-01-12T04:56:17.679Z,26.97
2024-01-12T04:58:44.606Z,25.10
2024-01-12T05:01:11.451Z,27.23
2024-01-12T05:03:38.335Z,27.67
2024-01-12T05:06:05.546Z,27.27
2024-01-12T05:08:35.093Z,26.60
2024-01-12T05:11:01.933Z,24.07
2024-01-12T05:13:28.782Z,26.20
2024-01-12T05:15:55.729Z,27.03
2024-01-12T05:18:23.427Z,27.27
2024-01-12T05:20:50.363Z,26.03
2024-01-12T05:23:17.541Z,32.23
2024-01-12T05:25:44.450Z,28.53
2024-01-12T05:28:11.503Z,28.10
2024-01-12T05:30:39.421Z,29.10
2024-01-12T05:33:06.374Z,27.40
2024-01-12T05:35:33.445Z,28.67
2024-01-12T05:38:00.326Z,28.67
2024-01-12T05:40:27.100Z,30.93
2024-01-12T05:42:53.937Z,30.90
2024-01-12T05:45:20.749Z,28.07
2024-01-12T05:47:47.629Z,30.37
2024-01-12T05:50:14.726Z,31.37
2024-01-12T05:52:41.598Z,30.03
2024-01-12T05:55:08.638Z,28.00
2024-01-12T05:57:36.327Z,30.80
2024-01-12T06:00:05.489Z,28.30
2024-01-12T06:02:32.814Z,28.83
2024-01-12T06:04:59.601Z,27.47
2024-01-12T06:07:26.516Z,29.97
2024-01-12T06:09:54.801Z,26.97
2024-01-12T06:12:21.587Z,29.60
2024-01-12T06:14:48.362Z,28.30
2024-01-12T06:17:15.295Z,27.60
2024-01-12T06:19:42.252Z,28.63
2024-01-12T06:22:10.969Z,28.10
2024-01-12T06:24:37.786Z,28.27
2024-01-12T06:27:05.551Z,29.33
2024-01-12T06:29:32.861Z,25.87
2024-01-12T06:31:59.924Z,29.97
2024-01-12T06:34:26.686Z,27.00
2024-01-12T06:36:53.504Z,28.10
2024-01-12T06:39:20.772Z,31.90
2024-01-12T06:41:48.274Z,31.60
2024-01-12T06:44:15.858Z,33.13
2024-01-12T06:46:45.017Z,31.23
2024-01-12T06:49:13.075Z,28.93
2024-01-12T06:51:40.150Z,31.23
2024-01-12T06:54:07.164Z,30.57
2024-01-12T06:56:38.432Z,30.17
2024-01-12T06:59:05.978Z,28.20
2024-01-12T07:01:33.413Z,30.37
2024-01-12T07:04:00.407Z,28.70
2024-01-12T07:06:27.449Z,27.73
2024-01-12T07:08:54.495Z,30.57
2024-01-12T07:11:21.471Z,26.83
2024-01-12T07:13:48.246Z,28.63
2024-01-12T07:16:15.287Z,28.43
2024-01-12T07:18:43.865Z,30.13
2024-01-12T07:21:10.848Z,29.97
2024-01-12T07:23:37.735Z,24.97
2024-01-12T07:26:04.690Z,26.40
2024-01-12T07:28:31.956Z,29.90
2024-01-12T07:30:58.876Z,29.03
2024-01-12T07:33:26.116Z,29.07
2024-01-12T07:35:53.189Z,26.00
2024-01-12T07:38:20.510Z,24.63
2024-01-12T07:40:48.302Z,26.27
2024-01-12T07:43:15.505Z,25.77
2024-01-12T07:45:42.428Z,26.70
2024-01-12T07:48:09.581Z,22.30
2024-01-12T07:50:37.106Z,22.80
2024-01-12T07:53:04.064Z,24.77
2024-01-12T07:55:31.249Z,21.30
2024-01-12T07:57:58.172Z,23.23
2024-01-12T08:00:25.026Z,21.00
2024-01-12T08:02:53.730Z,17.37
2024-01-12T08:05:21.735Z,16.57
2024-01-12T08:07:49.429Z,13.60
2024-01-12T08:10:17.097Z,12.50
2024-01-12T08:12:43.942Z,13.80
2024-01-12T08:15:11.017Z,12.37
2024-01-12T08:17:38.921Z,13.47
2024-01-12T08:20:06.841Z,12.80
2024-01-12T08:22:33.828Z,12.30
2024-01-12T08:25:01.206Z,11.77
2024-01-12T08:27:28.125Z,12.30
2024-01-12T08:29:55.009Z,14.17
2024-01-12T08:32:21.999Z,11.73
2024-01-12T08:34:49.382Z,13.17
2024-01-12T08:37:16.222Z,14.30
2024-01-12T08:39:43.040Z,15.23
2024-01-12T08:42:09.876Z,9.47
2024-01-12T08:44:36.776Z,10.57
2024-01-12T08:47:03.710Z,11.20
2024-01-12T08:49:30.526Z,11.07
2024-01-12T08:51:57.421Z,11.77
2024-01-12T08:54:24.200Z,12.27
2024-01-12T08:56:51.536Z,11.97
2024-01-12T08:59:18.517Z,13.03
2024-01-12T09:01:45.478Z,13.00
2024-01-12T09:04:12.517Z,14.53
2024-01-12T09:06:39.480Z,12.50
2024-01-12T09:09:06.505Z,12.83
2024-01-12T09:11:33.374Z,14.07
2024-01-12T09:14:00.287Z,14.20
2024-01-12T09:16:27.131Z,13.30
2024-01-12T09:18:54.084Z,15.57
2024-01-12T09:21:21.030Z,13.00
2024-01-12T09:23:47.973Z,13.80
2024-01-12T09:26:14.781Z,16.77
2024-01-12T09:28:41.599Z,14.60
2024-01-12T09:31:09.415Z,15.43
2024-01-12T09:33:36.565Z,12.87
2024-01-12T09:36:04.525Z,14.90
2024-01-12T09:38:31.542Z,12.77
2024-01-12T09:40:59.903Z,12.47
2024-01-12T09:43:29.436Z,12.27
2024-01-12T09:46:00.270Z,11.30
2024-01-12T09:48:28.534Z,11.93
2024-01-12T09:50:58.831Z,12.47
2024-01-12T09:53:26.921Z,9.80
2024-01-12T09:56:03.381Z,14.57
2024-01-12T09:58:37.973Z,12.53
2024-01-12T10:01:06.546Z,13.80
2024-01-12T10:03:34.699Z,12.53
2024-01-12T10:06:01.798Z,13.90
2024-01-12T10:08:38.794Z,12.07
2024-01-12T10:11:05.650Z,14.43
2024-01-12T10:13:33.010Z,14.37
2024-01-12T10:16:02.248Z,13.97
2024-01-12T10:18:29.587Z,15.40
2024-01-12T10:20:56.949Z,17.13
2024-01-12T10:23:24.667Z,14.47
2024-01-12T10:26:01.264Z,16.07
2024-01-12T10:28:32.266Z,14.13
2024-01-12T10:31:04.304Z,12.87
2024-01-12T10:33:31.460Z,13.53
2024-01-12T10:36:07.766Z,10.97
2024-01-12T10:38:38.137Z,13.53
2024-01-12T10:41:07.560Z,12.90
2024-01-12T10:43:38.369Z,11.73
2024-01-12T10:46:13.412Z,12.17
2024-01-12T10:49:06.654Z,12.90
2024-01-12T10:51:38.106Z,12.37
2024-01-12T10:54:20.086Z,14.03
2024-01-12T10:56:47.090Z,11.33
2024-01-12T10:59:14.320Z,12.10
2024-01-12T11:01:42.108Z,13.20
2024-01-12T11:04:09.297Z,11.50
2024-01-12T11:06:37.504Z,11.77
2024-01-12T11:09:06.063Z,13.43
2024-01-12T11:11:41.471Z,12.03
2024-01-12T11:14:08.973Z,11.73
2024-01-12T11:16:36.457Z,12.07
2024-01-12T11:19:04.671Z,13.23
2024-01-12T11:21:31.714Z,12.00
2024-01-12T11:23:58.660Z,12.00
2024-01-12T11:26:25.586Z,11.97
2024-01-12T11:28:52.435Z,10.73
2024-01-12T11:31:27.302Z,11.37
2024-01-12T11:34:04.375Z,11.03
2024-01-12T11:36:31.849Z,12.40
2024-01-12T11:39:02.175Z,11.80
2024-01-12T11:41:31.154Z,11.37
2024-01-12T11:43:58.284Z,12.27
2024-01-12T11:46:25.330Z,16.00
2024-01-12T11:48:52.872Z,11.33
2024-01-12T11:51:24.313Z,13.05
2024-01-12T11:53:53.301Z,11.93
2024-01-12T11:56:25.203Z,13.27
2024-01-12T11:58:55.436Z,14.87
2024-01-12T12:01:24.022Z,12.00
2024-01-12T12:03:50.941Z,11.97
2024-01-12T12:06:18.431Z,12.37
2024-01-12T12:08:45.472Z,12.63
2024-01-12T12:11:15.115Z,12.53
2024-01-12T12:13:42.616Z,11.23
2024-01-12T12:16:09.601Z,13.83
2024-01-12T12:18:36.792Z,11.07
2024-01-12T12:21:04.211Z,11.53
2024-01-12T12:23:31.488Z,13.33
2024-01-12T12:26:00.629Z,25.83
2024-01-12T12:28:27.837Z,14.93
2024-01-12T12:30:55.250Z,15.83
2024-01-12T12:33:26.101Z,13.20
2024-01-12T12:36:10.308Z,15.73
2024-01-12T12:38:38.773Z,15.37
2024-01-12T12:41:09.944Z,18.40
2024-01-12T12:43:39.176Z,14.33
2024-01-12T12:46:06.442Z,11.97
2024-01-12T12:48:33.485Z,11.77
2024-01-12T12:51:00.699Z,13.53
2024-01-12T12:53:27.998Z,12.67
2024-01-12T12:55:55.418Z,13.90
2024-01-12T12:58:22.259Z,11.80
2024-01-12T13:00:49.462Z,12.33
2024-01-12T13:03:16.408Z,12.57
2024-01-12T13:05:43.455Z,13.63
2024-01-12T13:08:10.586Z,15.13
2024-01-12T13:10:37.834Z,13.00
2024-01-12T13:13:05.481Z,13.70
2024-01-12T13:15:33.394Z,12.97
2024-01-12T13:18:00.509Z,13.40
2024-01-12T13:20:30.404Z,12.27
2024-01-12T13:22:58.240Z,11.93
2024-01-12T13:25:25.302Z,12.83
2024-01-12T13:27:52.134Z,12.70
2024-01-12T13:30:19.329Z,13.73
2024-01-12T13:32:46.340Z,15.67
2024-01-12T13:35:13.425Z,14.63
2024-01-12T13:37:40.342Z,15.00
2024-01-12T13:40:07.887Z,13.23
2024-01-12T13:42:35.053Z,12.93
2024-01-12T13:45:02.907Z,12.63
2024-01-12T13:47:30.154Z,16.67
2024-01-12T13:49:57.135Z,15.87
2024-01-12T13:52:24.143Z,14.33
2024-01-12T13:54:51.096Z,20.83
2024-01-12T13:57:18.169Z,16.53
2024-01-12T13:59:45.212Z,13.77
2024-01-12T14:02:12.101Z,13.57
2024-01-12T14:04:39.072Z,12.43
2024-01-12T14:07:07.165Z,16.20
2024-01-12T14:09:34.128Z,15.83
2024-01-12T14:12:01.852Z,20.20
2024-01-12T14:14:28.846Z,14.63
2024-01-12T14:16:55.988Z,13.13
2024-01-12T14:19:22.935Z,13.13
2024-01-12T14:21:49.860Z,12.43
2024-01-12T14:24:17.977Z,11.63
2024-01-12T14:26:44.964Z,11.83
2024-01-12T14:29:12.336Z,17.27
2024-01-12T14:31:39.463Z,12.63
2024-01-12T14:34:06.653Z,12.17
2024-01-12T14:36:33.636Z,13.10
2024-01-12T14:39:00.523Z,13.00
2024-01-12T14:41:27.448Z,12.13
2024-01-12T14:43:54.303Z,11.27
2024-01-12T14:46:22.163Z,11.20
2024-01-12T14:48:49.959Z,13.73
2024-01-12T14:51:17.330Z,13.80
2024-01-12T14:53:44.381Z,23.57
2024-01-12T14:56:14.647Z,21.20
2024-01-12T14:58:42.773Z,24.73
2024-01-12T15:01:09.831Z,53.57
2024-01-12T15:03:37.090Z,19.80
2024-01-12T15:06:04.697Z,14.27
2024-01-12T15:08:33.580Z,14.43
2024-01-12T15:11:00.590Z,13.07
2024-01-12T15:13:28.376Z,13.73
2024-01-12T15:15:56.866Z,16.70
2024-01-12T15:18:24.376Z,17.70
2024-01-12T15:20:55.057Z,13.53
2024-01-12T15:23:22.328Z,12.33
2024-01-12T15:25:54.739Z,28.83
2024-01-12T15:28:21.617Z,20.63
2024-01-12T15:30:48.547Z,16.53
2024-01-12T15:33:15.728Z,18.00
2024-01-12T15:35:44.005Z,25.13
2024-01-12T15:38:10.812Z,20.00
2024-01-12T15:40:37.600Z,19.27
2024-01-12T15:43:04.793Z,15.30
2024-01-12T15:45:31.949Z,14.43
2024-01-12T15:47:59.079Z,13.80
2024-01-12T15:50:27.116Z,14.90
2024-01-12T15:52:54.025Z,20.80
2024-01-12T15:55:20.770Z,19.20
2024-01-12T15:57:47.693Z,14.73
2024-01-12T16:00:14.817Z,14.80
2024-01-12T16:02:41.725Z,11.27
2024-01-12T16:05:08.994Z,11.20
2024-01-12T16:07:35.835Z,12.13
2024-01-12T16:10:02.921Z,11.93
2024-01-12T16:12:30.039Z,10.53
2024-01-12T16:14:56.898Z,12.93
2024-01-12T16:17:23.869Z,11.17
2024-01-12T16:19:51.038Z,11.70
2024-01-12T16:22:18.025Z,12.03
2024-01-12T16:24:49.526Z,10.50
2024-01-12T16:27:17.118Z,12.40
2024-01-12T16:29:45.325Z,10.07
2024-01-12T16:32:12.472Z,11.90
2024-01-12T16:34:39.614Z,12.87
2024-01-12T16:37:06.531Z,13.93
2024-01-12T16:39:33.423Z,15.50
2024-01-12T16:42:00.468Z,13.27
2024-01-12T16:44:28.874Z,11.30
2024-01-12T16:46:55.902Z,13.10
2024-01-12T16:49:23.179Z,14.70
2024-01-12T16:51:50.244Z,14.50
2024-01-12T16:54:17.470Z,13.53
2024-01-12T16:56:44.365Z,16.77
2024-01-12T16:59:12.085Z,12.53
2024-01-12T17:01:39.805Z,15.47
2024-01-12T17:04:06.781Z,22.47
2024-01-12T17:06:41.217Z,15.97
2024-01-12T17:09:12.136Z,16.03
2024-01-12T17:11:46.693Z,14.77
2024-01-12T17:14:13.941Z,12.57
2024-01-12T17:16:44.723Z,14.63
2024-01-12T17:19:12.005Z,13.87
2024-01-12T17:21:39.036Z,17.60
2024-01-12T17:24:06.167Z,15.50
2024-01-12T17:26:36.368Z,14.30
2024-01-12T17:29:03.312Z,17.30
2024-01-12T17:31:31.349Z,21.77
2024-01-12T17:33:58.740Z,19.63
2024-01-12T17:36:25.602Z,17.80
2024-01-12T17:38:52.644Z,19.97
2024-01-12T17:41:23.776Z,23.10
2024-01-12T17:43:51.546Z,17.07
2024-01-12T17:46:18.407Z,17.10
2024-01-12T17:48:45.554Z,17.07
2024-01-12T17:51:16.200Z,17.50
2024-01-12T17:53:44.247Z,17.20
2024-01-12T17:56:12.351Z,16.40
2024-01-12T17:58:39.274Z,14.93
2024-01-12T18:01:06.115Z,17.20
2024-01-12T18:03:32.908Z,17.20
2024-01-12T18:06:03.168Z,15.87
2024-01-12T18:08:30.105Z,14.83
2024-01-12T18:10:56.923Z,22.00
2024-01-12T18:13:23.797Z,19.00
2024-01-12T18:15:50.732Z,22.77
2024-01-12T18:18:17.963Z,20.27
2024-01-12T18:20:45.032Z,16.40
2024-01-12T18:23:11.885Z,17.33
2024-01-12T18:25:38.739Z,16.93
2024-01-12T18:28:05.615Z,15.70
2024-01-12T18:30:32.659Z,16.17
2024-01-12T18:33:02.688Z,17.67
2024-01-12T18:35:29.633Z,16.40
2024-01-12T18:37:56.553Z,13.27
2024-01-12T18:40:23.479Z,14.80
2024-01-12T18:42:50.460Z,16.90
2024-01-12T18:45:17.415Z,16.93
2024-01-12T18:47:44.323Z,14.40
2024-01-12T18:50:11.344Z,15.77
2024-01-12T18:52:43.838Z,14.17
2024-01-12T18:55:10.814Z,21.00
2024-01-12T18:57:37.624Z,15.90
2024-01-12T19:00:06.481Z,37.77
2024-01-12T19:02:33.368Z,74.97
2024-01-12T19:05:00.262Z,56.67
2024-01-12T19:07:28.810Z,19.73
2024-01-12T19:09:58.163Z,16.20
2024-01-12T19:12:24.991Z,18.17
2024-01-12T19:14:51.924Z,19.80
2024-01-12T19:17:18.945Z,17.60
2024-01-12T19:19:45.974Z,19.30
2024-01-12T19:22:12.991Z,21.93
2024-01-12T19:24:44.780Z,18.53
2024-01-12T19:27:12.617Z,22.97
2024-01-12T19:29:39.610Z,20.50
2024-01-12T19:32:06.954Z,23.93
2024-01-12T19:34:33.950Z,20.80
2024-01-12T19:37:00.783Z,17.73
2024-01-12T19:39:27.612Z,21.23
2024-01-12T19:41:58.530Z,19.73
2024-01-12T19:44:25.524Z,18.10
2024-01-12T19:46:52.357Z,13.37
2024-01-12T19:49:19.239Z,14.33
2024-01-12T19:51:46.129Z,12.40
2024-01-12T19:54:13.101Z,18.43
2024-01-12T19:56:39.952Z,12.70
2024-01-12T19:59:07.041Z,15.70
2024-01-12T20:01:33.971Z,15.93
2024-01-12T20:04:01.575Z,16.43
2024-01-12T20:06:28.695Z,18.07
2024-01-12T20:08:55.683Z,13.97
2024-01-12T20:11:22.495Z,20.97
2024-01-12T20:13:49.278Z,13.73
2024-01-12T20:16:16.155Z,28.20
2024-01-12T20:18:43.660Z,13.20
2024-01-12T20:21:11.594Z,11.63
2024-01-12T20:23:39.250Z,13.30
2024-01-12T20:26:06.441Z,15.63
2024-01-12T20:28:34.732Z,14.53
2024-01-12T20:31:02.594Z,14.17
2024-01-12T20:33:29.871Z,11.90
2024-01-12T20:35:56.982Z,11.60
2024-01-12T20:38:23.839Z,13.30
2024-01-12T20:40:50.667Z,11.27
2024-01-12T20:43:17.491Z,10.50
2024-01-12T20:45:44.728Z,10.73
2024-01-12T20:48:11.638Z,10.33
2024-01-12T20:50:38.593Z,11.53
2024-01-12T20:53:05.652Z,13.47
2024-01-12T20:55:32.468Z,13.57
2024-01-12T20:57:59.659Z,11.77
2024-01-12T21:00:26.661Z,12.77
2024-01-12T21:02:53.595Z,12.03
2024-01-12T21:05:20.601Z,14.33
2024-01-12T21:07:47.576Z,13.90
2024-01-12T21:10:14.501Z,12.87
2024-01-12T21:12:41.286Z,26.90
2024-01-12T21:15:08.489Z,51.90
2024-01-12T21:17:35.330Z,47.30
2024-01-12T21:20:02.416Z,23.30
2024-01-12T21:22:33.974Z,17.63
2024-01-12T21:25:07.592Z,15.00
2024-01-12T21:27:34.570Z,18.70
2024-01-12T21:30:01.567Z,18.40
2024-01-12T21:32:29.528Z,19.87
2024-01-12T21:34:56.583Z,18.13
2024-01-12T21:37:23.477Z,17.37
2024-01-12T21:39:50.338Z,16.00
2024-01-12T21:42:19.502Z,16.17
2024-01-12T21:44:46.575Z,18.13
2024-01-12T21:47:15.265Z,17.83
2024-01-12T21:49:42.516Z,18.20
2024-01-12T21:52:09.509Z,19.23
2024-01-12T21:54:36.290Z,19.30
2024-01-12T21:57:03.532Z,17.50
2024-01-12T21:59:30.968Z,17.77
2024-01-12T22:01:58.092Z,15.03
2024-01-12T22:04:24.859Z,16.60
2024-01-12T22:06:51.781Z,16.27
2024-01-12T22:09:18.877Z,18.40
2024-01-12T22:11:45.773Z,17.60
2024-01-12T22:14:12.694Z,17.90
2024-01-12T22:16:39.619Z,18.60
2024-01-12T22:19:06.591Z,18.73
2024-01-12T22:21:36.473Z,19.20
2024-01-12T22:24:06.666Z,17.47
2024-01-12T22:26:33.544Z,17.27
2024-01-12T22:29:02.854Z,20.97
2024-01-12T22:31:29.657Z,18.50
2024-01-12T22:33:56.630Z,20.17
2024-01-12T22:36:23.552Z,19.47
2024-01-12T22:38:50.424Z,19.93
2024-01-12T22:41:17.333Z,22.30
2024-01-12T22:43:44.208Z,20.00
2024-01-12T22:46:10.978Z,24.60
2024-01-12T22:48:37.798Z,21.90
2024-01-12T22:51:05.890Z,20.83
2024-01-12T22:53:33.487Z,19.13
2024-01-12T22:56:00.341Z,19.83
2024-01-12T22:58:27.153Z,17.93
2024-01-12T23:00:54.047Z,15.53
2024-01-12T23:03:20.962Z,17.53
2024-01-12T23:05:47.881Z,18.03
2024-01-12T23:08:14.769Z,17.80
2024-01-12T23:10:41.618Z,17.80
2024-01-12T23:13:08.406Z,18.43
2024-01-12T23:15:35.250Z,18.67
2024-01-12T23:18:02.584Z,19.23
2024-01-12T23:20:30.301Z,17.40
2024-01-12T23:22:57.720Z,17.97
2024-01-12T23:25:24.731Z,18.47
2024-01-12T23:27:51.516Z,18.23
2024-01-12T23:30:18.414Z,16.67
2024-01-12T23:32:45.608Z,17.87
2024-01-12T23:35:12.819Z,17.30
2024-01-12T23:37:39.768Z,17.73
2024-01-12T23:40:10.405Z,18.47
2024-01-12T23:42:37.710Z,18.57
2024-01-12T23:45:05.178Z,17.60
2024-01-12T23:47:32.648Z,16.67
2024-01-12T23:49:59.807Z,15.77
2024-01-12T23:52:26.707Z,15.97
2024-01-12T23:54:53.476Z,17.97
2024-01-12T23:57:20.346Z,15.67
2024-01-12T23:59:47.334Z,17.07
